Time,TemperatureF,DewpointF,PressureIn,WindDirection,WindDirectionDegrees,WindSpeedMPH,WindSpeedGustMPH,Humidity,HourlyPrecipIn,Conditions,Clouds,dailyrainin,SoftwareType,DateUTC
2013-09-17 00:00:00,46.0,39.9,30.31,North,350,0.0,14.0,79,0.00,,,0.17,Wunderground v.1.13,2013-09-17 04:00:00,
2013-09-17 00:30:00,44.2,40.0,30.32,North,350,0.0,14.0,85,0.00,,,0.17,Wunderground v.1.13,2013-09-17 04:30:00,
2013-09-17 01:00:00,43.1,39.8,30.32,North,350,0.0,14.0,88,0.00,,,0.00,Wunderground v.1.13,2013-09-17 05:00:00,
2013-09-17 01:30:00,42.2,39.5,30.32,North,350,0.0,14.0,90,0.00,,,0.00,Wunderground v.1.13,2013-09-17 05:30:00,
2013-09-17 02:00:00,41.3,38.9,30.33,North,350,0.0,14.0,91,0.00,,,0.00,Wunderground v.1.13,2013-09-17 06:00:00,
2013-09-17 02:30:00,40.6,38.5,30.33,North,350,0.0,14.0,92,0.00,,,0.00,Wunderground v.1.13,2013-09-17 06:30:00,
2013-09-17 03:00:00,40.1,38.0,30.33,North,350,0.0,14.0,92,0.00,,,0.00,Wunderground v.1.13,2013-09-17 07:00:00,
2013-09-17 03:30:00,39.3,37.4,30.34,North,350,0.0,14.0,93,0.00,,,0.00,Wunderground v.1.13,2013-09-17 07:30:00,
2013-09-17 04:00:00,39.2,37.3,30.35,North,350,0.0,14.0,93,0.00,,,0.00,Wunderground v.1.13,2013-09-17 08:00:00,
2013-09-17 04:30:00,38.9,37.3,30.35,NNW,348,1.0,1.0,94,0.00,,,0.00,Wunderground v.1.13,2013-09-17 08:30:00,
2013-09-17 05:00:00,38.9,37.6,30.35,NNW,348,0.0,14.0,95,0.00,,,0.00,Wunderground v.1.13,2013-09-17 09:00:00,
2013-09-17 05:30:00,39.1,37.5,30.36,NW,308,0.0,14.0,94,0.00,,,0.00,Wunderground v.1.13,2013-09-17 09:30:00,
2013-09-17 06:00:00,38.6,36.8,30.37,NW,308,1.0,1.0,93,0.00,,,0.00,Wunderground v.1.13,2013-09-17 10:00:00,
2013-09-17 06:30:00,38.2,36.6,30.38,NW,308,0.0,14.0,94,0.00,,,0.00,Wunderground v.1.13,2013-09-17 10:30:00,
2013-09-17 07:00:00,38.6,36.8,30.39,NW,308,0.0,14.0,93,0.00,,,0.00,Wunderground v.1.13,2013-09-17 11:00:00,
2013-09-17 07:30:00,38.8,36.9,30.40,NW,304,1.0,14.0,93,0.00,,,0.00,Wunderground v.1.13,2013-09-17 11:30:00,
2013-09-17 08:00:00,39.9,37.8,30.41,West,259,2.0,14.0,92,0.00,,,0.00,Wunderground v.1.13,2013-09-17 12:00:00,
2013-09-17 08:30:00,41.9,39.5,30.41,WSW,258,2.0,2.0,91,0.00,,,0.00,Wunderground v.1.13,2013-09-17 12:30:00,
2013-09-17 09:00:00,45.2,41.6,30.41,WSW,258,2.0,2.0,87,0.00,,,0.00,Wunderground v.1.13,2013-09-17 13:00:00,
2013-09-17 09:30:00,48.8,42.9,30.42,WSW,258,1.0,14.0,80,0.00,,,0.00,Wunderground v.1.13,2013-09-17 13:30:00,
2013-09-17 10:00:00,51.1,42.7,30.42,WSW,258,2.0,14.0,73,0.00,,,0.00,Wunderground v.1.13,2013-09-17 14:00:00,
2013-09-17 10:30:00,54.2,42.7,30.42,WSW,258,1.0,14.0,65,0.00,,,0.00,Wunderground v.1.13,2013-09-17 14:30:00,
2013-09-17 11:00:00,55.3,43.3,30.42,WSW,257,1.0,14.0,64,0.00,,,0.00,Wunderground v.1.13,2013-09-17 15:00:00,
2013-09-17 11:30:00,57.0,43.2,30.41,WSW,249,1.0,14.0,60,0.00,,,0.00,Wunderground v.1.13,2013-09-17 15:30:00,
2013-09-17 12:00:00,58.0,41.4,30.40,WSW,240,2.0,14.0,54,0.00,,,0.00,Wunderground v.1.13,2013-09-17 16:00:00,
2013-09-17 12:30:00,59.5,42.3,30.39,WSW,237,1.0,14.0,53,0.00,,,0.00,Wunderground v.1.13,2013-09-17 16:30:00,
2013-09-17 13:00:00,60.5,40.7,30.38,WSW,237,1.0,1.0,48,0.00,,,0.00,Wunderground v.1.13,2013-09-17 17:00:00,
2013-09-17 13:30:00,61.3,40.3,30.37,West,265,2.0,14.0,46,0.00,,,0.00,Wunderground v.1.13,2013-09-17 17:30:00,
2013-09-17 14:00:00,61.6,40.6,30.36,West,276,3.0,3.0,46,0.00,,,0.00,Wunderground v.1.13,2013-09-17 18:00:00,
2013-09-17 14:30:00,62.6,41.5,30.35,West,265,1.0,14.0,46,0.00,,,0.00,Wunderground v.1.13,2013-09-17 18:30:00,
2013-09-17 15:00:00,63.4,41.7,30.33,West,271,0.0,14.0,45,0.00,,,0.00,Wunderground v.1.13,2013-09-17 19:00:00,
2013-09-17 15:30:00,63.9,41.5,30.32,WSW,253,1.0,1.0,44,0.00,,,0.00,Wunderground v.1.13,2013-09-17 19:30:00,
2013-09-17 16:00:00,63.7,41.4,30.30,WSW,252,1.0,14.0,44,0.00,,,0.00,Wunderground v.1.13,2013-09-17 20:00:00,
2013-09-17 16:30:00,63.9,42.1,30.30,SW,235,1.0,1.0,45,0.00,,,0.00,Wunderground v.1.13,2013-09-17 20:30:00,
2013-09-17 17:00:00,64.5,41.5,30.28,SW,234,1.0,1.0,43,0.00,,,0.00,Wunderground v.1.13,2013-09-17 21:00:00,
2013-09-17 17:30:00,65.0,41.3,30.28,SW,235,1.0,1.0,42,0.00,,,0.00,Wunderground v.1.13,2013-09-17 21:30:00,
2013-09-17 18:00:00,63.1,40.2,30.27,SW,218,2.0,2.0,43,0.00,,,0.00,Wunderground v.1.13,2013-09-17 22:00:00,
2013-09-17 18:30:00,62.0,43.1,30.27,SW,219,0.0,14.0,50,0.00,,,0.00,Wunderground v.1.13,2013-09-17 22:30:00,
2013-09-17 19:00:00,59.0,45.1,30.26,SW,219,0.0,14.0,60,0.00,,,0.00,Wunderground v.1.13,2013-09-17 23:00:00,
2013-09-17 19:30:00,55.3,45.3,30.25,SW,219,0.0,14.0,69,0.00,,,0.00,Wunderground v.1.13,2013-09-17 23:30:00,
2013-09-17 20:00:00,53.2,45.5,30.25,SW,219,0.0,14.0,75,0.00,,,0.00,Wunderground v.1.13,2013-09-18 00:00:00,
2013-09-17 20:30:00,52.2,46.2,30.25,SW,219,0.0,14.0,80,0.00,,,0.00,Wunderground v.1.13,2013-09-18 00:30:00,
2013-09-17 21:30:00,50.8,45.5,30.25,SW,219,0.0,14.0,82,0.00,,,0.00,Wunderground v.1.13,2013-09-18 01:30:00,
2013-09-17 22:00:00,50.2,44.9,30.24,SW,219,0.0,14.0,82,0.00,,,0.00,Wunderground v.1.13,2013-09-18 02:00:00,
2013-09-17 22:30:00,49.6,44.6,30.24,SW,219,0.0,14.0,83,0.00,,,0.00,Wunderground v.1.13,2013-09-18 02:30:00,
2013-09-17 23:00:00,48.8,44.5,30.24,SW,219,0.0,14.0,85,0.00,,,0.00,Wunderground v.1.13,2013-09-18 03:00:00,
2013-09-17 23:30:00,48.2,44.2,30.24,SW,219,0.0,14.0,86,0.00,,,0.00,Wunderground v.1.13,2013-09-18 03:30:00,